createdAt,value
2023-03-29T00:01:41.941Z,78.83
2023-03-29T00:04:10.136Z,79.33
2023-03-29T00:06:37.803Z,78.77
2023-03-29T00:09:06.133Z,78.92
2023-03-29T00:11:32.757Z,78.15
2023-03-29T00:13:59.359Z,78.63
2023-03-29T00:16:26.131Z,78.75
2023-03-29T00:18:52.729Z,78.65
2023-03-29T00:21:19.267Z,78.81
2023-03-29T00:23:45.961Z,78.98
2023-03-29T00:26:12.739Z,79.01
2023-03-29T00:28:39.275Z,79.98
2023-03-29T00:31:14.933Z,79.11
2023-03-29T00:33:42.289Z,78.64
2023-03-29T00:36:11.349Z,78.92
2023-03-29T00:38:39.349Z,79.39
2023-03-29T00:41:07.818Z,78.96
2023-03-29T00:43:58.495Z,79.41
2023-03-29T00:46:27.338Z,78.86
2023-03-29T00:49:01.987Z,78.75
2023-03-29T00:51:33.166Z,78.88
2023-03-29T00:54:03.430Z,78.95
2023-03-29T00:56:35.287Z,79.21
2023-03-29T00:59:17.639Z,78.28
2023-03-29T01:01:57.821Z,78.75
2023-03-29T01:04:41.589Z,78.85
2023-03-29T01:07:30.717Z,78.94
2023-03-29T01:10:12.033Z,79.24
2023-03-29T01:12:45.511Z,79.49
2023-03-29T01:15:17.191Z,79.45
2023-03-29T01:17:50.356Z,79.72
2023-03-29T01:20:26.848Z,80.05
2023-03-29T01:23:45.832Z,79.78
2023-03-29T01:26:15.068Z,80.75
2023-03-29T01:28:57.513Z,80.67
2023-03-29T01:31:28.679Z,80.67
2023-03-29T01:34:10.147Z,80.86
2023-03-29T01:36:49.382Z,81.85
2023-03-29T01:39:18.909Z,82.35
2023-03-29T01:41:58.244Z,82.57
2023-03-29T01:44:39.564Z,83.04
2023-03-29T01:47:17.355Z,83.14
2023-03-29T01:49:56.268Z,83.63
2023-03-29T01:52:51.384Z,83.73
2023-03-29T01:55:26.251Z,84.25
2023-03-29T01:57:56.228Z,84.47
2023-03-29T02:00:27.474Z,84.59
2023-03-29T02:03:00.135Z,84.93
2023-03-29T02:05:30.606Z,85.24
2023-03-29T02:08:00.351Z,85.56
2023-03-29T02:10:27.801Z,86.14
2023-03-29T02:12:54.396Z,86.59
2023-03-29T02:15:21.495Z,86.69
2023-03-29T02:17:49.476Z,87.25
2023-03-29T02:20:24.861Z,87.14
2023-03-29T02:22:54.394Z,87.47
2023-03-29T02:25:22.533Z,87.41
2023-03-29T02:27:49.511Z,87.67
2023-03-29T02:30:18.479Z,87.35
2023-03-29T02:33:13.913Z,87.23
2023-03-29T02:35:48.686Z,87.26
2023-03-29T02:38:17.093Z,87.23
2023-03-29T02:40:46.774Z,87.21
2023-03-29T02:43:16.075Z,86.85
2023-03-29T02:45:44.456Z,86.90
2023-03-29T02:48:17.230Z,86.63
2023-03-29T02:50:47.555Z,87.01
2023-03-29T02:53:22.910Z,86.88
2023-03-29T02:55:51.772Z,86.42
2023-03-29T02:58:18.415Z,86.02
2023-03-29T03:00:49.112Z,86.14
2023-03-29T03:03:15.817Z,85.61
2023-03-29T03:05:44.943Z,85.37
2023-03-29T03:08:11.528Z,85.47
2023-03-29T03:10:38.871Z,84.81
2023-03-29T03:13:05.744Z,84.34
2023-03-29T03:15:35.609Z,84.16
2023-03-29T03:18:03.563Z,84.50
2023-03-29T03:20:31.170Z,84.16
2023-03-29T03:22:58.536Z,84.24
2023-03-29T03:25:25.115Z,83.53
2023-03-29T03:27:51.818Z,83.90
2023-03-29T03:30:21.916Z,83.87
2023-03-29T03:33:11.638Z,82.87
2023-03-29T03:35:46.384Z,83.49
2023-03-29T03:38:15.179Z,81.59
2023-03-29T03:40:43.300Z,79.69
2023-03-29T03:43:10.093Z,81.89
2023-03-29T03:45:36.615Z,79.11
2023-03-29T03:48:13.552Z,81.61
2023-03-29T03:50:53.237Z,80.86
2023-03-29T03:53:21.406Z,81.56
2023-03-29T03:56:09.006Z,82.21
2023-03-29T03:58:47.647Z,81.42
2023-03-29T04:01:17.096Z,82.07
2023-03-29T04:03:53.803Z,82.02
2023-03-29T04:06:20.693Z,81.46
2023-03-29T04:09:05.818Z,81.55
2023-03-29T04:11:45.085Z,82.03
2023-03-29T04:14:13.411Z,81.64
2023-03-29T04:17:04.487Z,81.59
2023-03-29T04:19:47.586Z,81.61
2023-03-29T04:22:14.214Z,81.74
2023-03-29T04:24:40.867Z,81.46
2023-03-29T04:27:21.783Z,81.52
2023-03-29T04:29:48.819Z,81.42
2023-03-29T04:32:26.602Z,81.53
2023-03-29T04:35:00.387Z,81.13
2023-03-29T04:37:27.923Z,81.54
2023-03-29T04:39:54.542Z,81.55
2023-03-29T04:42:22.244Z,81.32
2023-03-29T04:44:48.947Z,80.93
2023-03-29T04:47:23.377Z,81.43
2023-03-29T04:49:57.919Z,81.33
2023-03-29T04:52:45.464Z,81.28
2023-03-29T04:55:12.686Z,81.29
2023-03-29T04:57:44.615Z,81.55
2023-03-29T05:00:20.226Z,81.18
2023-03-29T05:02:55.840Z,81.13
2023-03-29T05:05:22.653Z,81.43
2023-03-29T05:07:50.805Z,81.47
2023-03-29T05:10:21.592Z,81.59
2023-03-29T05:12:53.784Z,82.14
2023-03-29T05:15:22.034Z,81.67
2023-03-29T05:17:49.952Z,81.92
2023-03-29T05:20:17.513Z,81.79
2023-03-29T05:22:47.040Z,81.87
2023-03-29T05:25:26.364Z,81.97
2023-03-29T05:27:53.072Z,81.62
2023-03-29T05:30:19.692Z,82.07
2023-03-29T05:32:56.434Z,82.32
2023-03-29T05:35:26.209Z,81.72
2023-03-29T05:37:53.911Z,81.75
2023-03-29T05:40:22.032Z,81.78
2023-03-29T05:43:07.401Z,81.65
2023-03-29T05:45:34.269Z,81.32
2023-03-29T05:48:01.418Z,81.90
2023-03-29T05:50:28.181Z,81.23
2023-03-29T05:52:55.908Z,81.29
2023-03-29T05:55:23.687Z,81.06
2023-03-29T05:57:50.330Z,81.91
2023-03-29T06:00:23.574Z,81.43
2023-03-29T06:03:03.619Z,81.47
2023-03-29T06:05:40.354Z,81.73
2023-03-29T06:08:07.022Z,82.11
2023-03-29T06:10:43.425Z,82.12
2023-03-29T06:13:23.969Z,81.95
2023-03-29T06:15:50.573Z,81.71
2023-03-29T06:18:19.908Z,82.38
2023-03-29T06:20:51.061Z,82.63
2023-03-29T06:23:20.651Z,82.75
2023-03-29T06:25:48.031Z,83.12
2023-03-29T06:28:14.959Z,83.13
2023-03-29T06:30:42.016Z,83.41
2023-03-29T06:33:09.608Z,83.77
2023-03-29T06:36:02.221Z,83.60
2023-03-29T06:38:31.024Z,83.77
2023-03-29T06:41:05.957Z,83.54
2023-03-29T06:43:57.790Z,83.44
2023-03-29T06:46:31.694Z,83.91
2023-03-29T06:49:01.562Z,83.92
2023-03-29T06:51:43.625Z,84.81
2023-03-29T06:54:11.646Z,84.53
2023-03-29T06:56:46.278Z,84.27
2023-03-29T06:59:15.373Z,84.47
2023-03-29T07:01:58.944Z,84.58
2023-03-29T07:04:46.201Z,84.47
2023-03-29T07:07:20.536Z,84.74
2023-03-29T07:09:54.106Z,84.95
2023-03-29T07:12:46.772Z,84.68
2023-03-29T07:15:16.157Z,85.42
2023-03-29T07:18:04.976Z,85.37
2023-03-29T07:20:33.675Z,85.45
2023-03-29T07:23:09.088Z,85.52
2023-03-29T07:25:36.881Z,85.73
2023-03-29T07:28:03.633Z,85.79
2023-03-29T07:30:32.389Z,85.88
2023-03-29T07:33:15.879Z,86.47
2023-03-29T07:35:48.649Z,86.06
2023-03-29T07:38:15.597Z,86.51
2023-03-29T07:40:47.493Z,86.85
2023-03-29T07:43:51.879Z,86.41
2023-03-29T07:46:23.393Z,87.25
2023-03-29T07:48:50.308Z,86.78
2023-03-29T07:51:16.910Z,87.21
2023-03-29T07:53:54.038Z,87.13
2023-03-29T07:56:47.897Z,87.01
2023-03-29T07:59:34.955Z,87.79
2023-03-29T08:02:11.108Z,87.90
2023-03-29T08:04:46.147Z,88.39
2023-03-29T08:07:19.145Z,88.55
2023-03-29T08:10:15.212Z,88.90
2023-03-29T08:12:58.298Z,89.17
2023-03-29T08:15:54.124Z,86.26
2023-03-29T08:18:30.704Z,83.72
2023-03-29T08:20:58.763Z,84.95
2023-03-29T08:23:25.380Z,86.00
2023-03-29T08:26:01.576Z,86.31
2023-03-29T08:28:28.226Z,88.15
2023-03-29T08:30:54.924Z,89.11
2023-03-29T08:33:22.178Z,90.32
2023-03-29T08:36:00.587Z,90.50
2023-03-29T08:38:30.958Z,90.99
2023-03-29T08:40:57.602Z,92.25
2023-03-29T08:43:35.617Z,92.15
2023-03-29T08:46:26.266Z,92.74
2023-03-29T08:49:02.322Z,90.56
2023-03-29T08:51:40.431Z,91.26
2023-03-29T08:54:19.555Z,91.07
2023-03-29T08:57:18.181Z,92.13
2023-03-29T08:59:54.935Z,92.91
2023-03-29T09:02:26.177Z,92.72
2023-03-29T09:05:06.547Z,92.90
2023-03-29T09:07:42.105Z,92.79
2023-03-29T09:10:15.305Z,93.32
2023-03-29T09:13:01.382Z,93.19
2023-03-29T09:15:34.501Z,93.52
2023-03-29T09:18:28.281Z,94.08
2023-03-29T09:21:31.198Z,94.00
2023-03-29T09:24:15.498Z,94.06
2023-03-29T09:26:59.019Z,93.23
2023-03-29T09:29:47.321Z,93.88
2023-03-29T09:32:22.503Z,94.16
2023-03-29T09:35:07.899Z,94.14
2023-03-29T09:37:38.118Z,93.55
2023-03-29T09:40:19.400Z,93.96
2023-03-29T09:43:04.366Z,94.51
2023-03-29T09:45:31.150Z,93.90
2023-03-29T09:48:02.601Z,94.49
2023-03-29T09:50:42.210Z,94.54
2023-03-29T09:53:10.772Z,95.21
2023-03-29T09:55:45.130Z,95.54
2023-03-29T09:58:27.814Z,95.60
2023-03-29T10:00:58.944Z,96.58
2023-03-29T10:03:28.459Z,87.86
2023-03-29T10:06:11.899Z,96.27
2023-03-29T10:08:47.644Z,96.51
2023-03-29T10:11:23.423Z,95.77
2023-03-29T10:13:54.935Z,96.86
2023-03-29T10:16:29.579Z,97.36
2023-03-29T10:18:56.469Z,98.58
2023-03-29T10:21:23.724Z,98.75
2023-03-29T10:23:58.583Z,95.40
2023-03-29T10:26:31.806Z,98.30
2023-03-29T10:29:01.519Z,96.05
2023-03-29T10:31:33.078Z,96.25
2023-03-29T10:34:05.331Z,96.20
2023-03-29T10:36:32.513Z,96.39
2023-03-29T10:39:02.224Z,93.06
2023-03-29T10:41:34.029Z,89.89
2023-03-29T10:44:01.437Z,93.17
2023-03-29T10:46:40.282Z,93.75
2023-03-29T10:49:18.137Z,94.18
2023-03-29T10:51:51.675Z,94.83
2023-03-29T10:54:21.904Z,94.69
2023-03-29T10:56:57.528Z,94.56
2023-03-29T10:59:40.148Z,94.88
2023-03-29T11:02:15.622Z,95.66
2023-03-29T11:05:03.463Z,95.34
2023-03-29T11:07:40.277Z,94.61
2023-03-29T11:10:19.073Z,94.10
2023-03-29T11:13:08.332Z,93.79
2023-03-29T11:16:00.482Z,94.32
2023-03-29T11:18:35.854Z,94.49
2023-03-29T11:21:12.447Z,95.59
2023-03-29T11:23:55.807Z,95.79
2023-03-29T11:26:56.312Z,95.68
2023-03-29T11:29:27.309Z,95.98
2023-03-29T11:32:26.182Z,95.40
2023-03-29T11:35:03.439Z,95.70
2023-03-29T11:37:48.601Z,94.07
2023-03-29T11:40:27.177Z,94.15
2023-03-29T11:42:56.836Z,93.69
2023-03-29T11:45:31.315Z,93.99
2023-03-29T11:48:01.489Z,93.36
2023-03-29T11:51:11.468Z,93.15
2023-03-29T11:54:01.761Z,93.07
2023-03-29T11:56:39.241Z,92.28
2023-03-29T11:59:18.424Z,92.68
2023-03-29T12:01:52.076Z,92.27
2023-03-29T12:04:29.924Z,92.16
2023-03-29T12:07:26.594Z,92.02
2023-03-29T12:09:59.021Z,91.20
2023-03-29T12:12:32.989Z,92.32
2023-03-29T12:15:10.896Z,92.33
2023-03-29T12:17:43.878Z,91.77
2023-03-29T12:20:27.254Z,90.63
2023-03-29T12:22:57.063Z,90.00
2023-03-29T12:25:53.122Z,91.10
2023-03-29T12:28:37.398Z,91.08
2023-03-29T12:31:32.672Z,90.61
2023-03-29T12:34:20.780Z,89.28
2023-03-29T12:37:17.102Z,89.13
2023-03-29T12:40:18.512Z,89.23
2023-03-29T12:43:07.825Z,89.43
2023-03-29T12:46:08.701Z,90.08
2023-03-29T12:48:39.819Z,89.94
2023-03-29T12:51:15.905Z,89.70
2023-03-29T12:53:54.442Z,89.25
2023-03-29T12:56:23.926Z,89.08
2023-03-29T12:59:06.807Z,89.00
2023-03-29T13:01:36.736Z,88.97
2023-03-29T13:04:18.450Z,89.38
2023-03-29T13:07:06.030Z,89.30
2023-03-29T13:09:36.598Z,88.83
2023-03-29T13:12:16.192Z,88.09
2023-03-29T13:14:46.227Z,86.99
2023-03-29T13:17:45.752Z,86.45
2023-03-29T13:20:46.648Z,87.79
2023-03-29T13:23:50.908Z,86.50
2023-03-29T13:26:23.290Z,85.44
2023-03-29T13:29:03.330Z,83.52
2023-03-29T13:31:36.330Z,83.42
2023-03-29T13:34:24.702Z,84.31
2023-03-29T13:37:13.004Z,84.58
2023-03-29T13:39:50.494Z,84.06
2023-03-29T13:42:38.983Z,83.15
2023-03-29T13:45:27.402Z,83.42
2023-03-29T13:48:25.217Z,83.29
2023-03-29T13:50:56.303Z,82.61
2023-03-29T13:53:34.818Z,83.13
2023-03-29T13:56:01.753Z,83.00
2023-03-29T13:58:48.280Z,83.34
2023-03-29T14:01:24.885Z,83.00
2023-03-29T14:03:52.612Z,83.36
2023-03-29T14:06:26.478Z,82.61
2023-03-29T14:08:53.874Z,82.69
2023-03-29T14:11:27.338Z,83.48
2023-03-29T14:13:56.562Z,82.58
2023-03-29T14:16:27.110Z,83.40
2023-03-29T14:18:58.037Z,83.75
2023-03-29T14:21:24.778Z,83.43
2023-03-29T14:23:57.951Z,82.64
2023-03-29T14:26:30.689Z,81.77
2023-03-29T14:28:58.951Z,81.29
2023-03-29T14:31:37.824Z,81.85
2023-03-29T14:34:07.760Z,82.52
2023-03-29T14:36:34.420Z,82.35
2023-03-29T14:39:05.320Z,83.33
2023-03-29T14:41:35.060Z,83.30
2023-03-29T14:44:03.128Z,84.22
2023-03-29T14:46:30.093Z,84.30
2023-03-29T14:48:57.455Z,84.36
2023-03-29T14:51:30.420Z,85.23
2023-03-29T14:54:03.346Z,84.39
2023-03-29T14:56:32.762Z,83.81
2023-03-29T14:59:03.556Z,83.75
2023-03-29T15:01:30.215Z,83.65
2023-03-29T15:04:04.601Z,83.15
2023-03-29T15:06:32.622Z,82.83
2023-03-29T15:09:06.197Z,82.02
2023-03-29T15:11:34.796Z,81.06
2023-03-29T15:14:13.883Z,81.83
2023-03-29T15:16:42.777Z,82.52
2023-03-29T15:19:18.436Z,82.05
2023-03-29T15:21:47.919Z,83.10
2023-03-29T15:24:27.302Z,83.13
2023-03-29T15:27:11.127Z,82.45
2023-03-29T15:29:43.816Z,81.68
2023-03-29T15:32:24.065Z,81.62
2023-03-29T15:35:01.740Z,81.62
2023-03-29T15:37:28.364Z,81.39
2023-03-29T15:39:56.229Z,81.32
2023-03-29T15:42:23.529Z,80.96
2023-03-29T15:44:54.363Z,80.77
2023-03-29T15:47:20.909Z,80.95
2023-03-29T15:49:47.619Z,81.06
2023-03-29T15:52:14.481Z,81.58
2023-03-29T15:54:42.392Z,81.93
2023-03-29T15:57:14.187Z,82.13
2023-03-29T15:59:41.913Z,82.64
2023-03-29T16:02:15.545Z,82.92
2023-03-29T16:04:42.860Z,82.96
2023-03-29T16:07:15.241Z,82.66
2023-03-29T16:09:42.128Z,82.73
2023-03-29T16:12:10.118Z,82.97
2023-03-29T16:14:36.773Z,82.59
2023-03-29T16:17:04.650Z,82.79
2023-03-29T16:19:32.196Z,82.66
2023-03-29T16:22:00.301Z,82.88
2023-03-29T16:24:31.207Z,83.30
2023-03-29T16:26:59.036Z,82.71
2023-03-29T16:29:25.966Z,83.03
2023-03-29T16:31:53.216Z,83.05
2023-03-29T16:34:20.930Z,82.79
2023-03-29T16:36:47.901Z,82.92
2023-03-29T16:39:15.099Z,83.54
2023-03-29T16:41:42.811Z,83.63
2023-03-29T16:44:16.449Z,83.67
2023-03-29T16:46:43.288Z,83.54
2023-03-29T16:49:17.911Z,84.00
2023-03-29T16:51:48.163Z,84.30
2023-03-29T16:54:17.071Z,84.37
2023-03-29T16:56:43.677Z,83.99
2023-03-29T16:59:10.418Z,84.41
2023-03-29T17:01:37.245Z,84.47
2023-03-29T17:04:04.540Z,84.99
2023-03-29T17:06:32.618Z,85.06
2023-03-29T17:08:59.301Z,84.91
2023-03-29T17:11:26.864Z,85.77
2023-03-29T17:13:53.953Z,86.17
2023-03-29T17:16:20.683Z,86.16
2023-03-29T17:18:47.355Z,86.82
2023-03-29T17:21:13.904Z,87.00
2023-03-29T17:23:40.433Z,87.54
2023-03-29T17:26:07.561Z,87.64
2023-03-29T17:28:34.854Z,88.11
2023-03-29T17:31:08.146Z,88.25
2023-03-29T17:33:35.952Z,88.40
2023-03-29T17:36:04.375Z,88.62
2023-03-29T17:38:33.772Z,88.61
2023-03-29T17:41:01.004Z,89.05
2023-03-29T17:43:27.644Z,89.16
2023-03-29T17:45:54.468Z,89.29
2023-03-29T17:48:21.599Z,89.55
2023-03-29T17:50:48.277Z,89.11
2023-03-29T17:53:14.848Z,89.06
2023-03-29T17:55:41.616Z,89.48
2023-03-29T17:58:08.519Z,89.52
2023-03-29T18:00:35.627Z,89.59
2023-03-29T18:03:02.337Z,89.24
2023-03-29T18:05:28.863Z,89.31
2023-03-29T18:07:55.454Z,89.45
2023-03-29T18:10:22.508Z,88.98
2023-03-29T18:12:49.147Z,89.13
2023-03-29T18:15:15.779Z,89.30
2023-03-29T18:17:42.418Z,89.40
2023-03-29T18:20:11.595Z,89.65
2023-03-29T18:22:39.783Z,89.81
2023-03-29T18:25:07.461Z,89.85
2023-03-29T18:27:34.051Z,89.76
2023-03-29T18:30:00.563Z,90.29
2023-03-29T18:32:27.151Z,89.95
2023-03-29T18:34:53.756Z,90.19
2023-03-29T18:37:20.856Z,89.98
2023-03-29T18:39:47.945Z,90.18
2023-03-29T18:42:14.771Z,89.89
2023-03-29T18:44:42.202Z,90.48
2023-03-29T18:47:08.833Z,90.71
2023-03-29T18:49:36.635Z,90.78
2023-03-29T18:52:04.790Z,90.64
2023-03-29T18:54:31.675Z,90.41
2023-03-29T18:56:59.210Z,90.62
2023-03-29T18:59:26.215Z,90.92
2023-03-29T19:01:52.866Z,90.79
2023-03-29T19:04:20.054Z,90.69
2023-03-29T19:06:47.369Z,90.47
2023-03-29T19:09:13.950Z,90.32
2023-03-29T19:11:40.539Z,90.32
2023-03-29T19:14:09.091Z,91.06
2023-03-29T19:16:36.016Z,91.61
2023-03-29T19:19:04.857Z,91.81
2023-03-29T19:21:32.282Z,91.93
2023-03-29T19:24:00.742Z,90.59
2023-03-29T19:26:29.390Z,90.62
2023-03-29T19:28:56.214Z,91.07
2023-03-29T19:31:22.962Z,90.97
2023-03-29T19:33:49.568Z,91.20
2023-03-29T19:36:16.471Z,91.34
2023-03-29T19:38:43.149Z,91.26
2023-03-29T19:41:10.024Z,91.22
2023-03-29T19:43:36.654Z,91.09
2023-03-29T19:46:11.792Z,90.94
2023-03-29T19:48:39.191Z,91.11
2023-03-29T19:51:05.955Z,90.87
2023-03-29T19:53:32.865Z,90.67
2023-03-29T19:55:59.609Z,90.34
2023-03-29T19:58:26.175Z,90.18
2023-03-29T20:00:57.923Z,89.92
2023-03-29T20:03:28.123Z,88.92
2023-03-29T20:05:56.499Z,89.67
2023-03-29T20:08:24.697Z,89.61
2023-03-29T20:11:03.410Z,89.55
2023-03-29T20:13:38.280Z,89.20
2023-03-29T20:16:10.812Z,89.21
2023-03-29T20:18:38.246Z,89.25
2023-03-29T20:21:06.227Z,89.37
2023-03-29T20:23:33.600Z,89.03
2023-03-29T20:26:00.217Z,88.89
2023-03-29T20:28:26.894Z,88.73
2023-03-29T20:30:53.829Z,88.54
2023-03-29T20:33:21.761Z,88.32
2023-03-29T20:35:49.286Z,88.12
2023-03-29T20:38:16.151Z,87.62
2023-03-29T20:40:42.812Z,87.42
2023-03-29T20:43:13.431Z,87.51
2023-03-29T20:45:52.706Z,87.49
2023-03-29T20:48:23.099Z,87.25
2023-03-29T20:50:50.656Z,87.18
2023-03-29T20:53:18.373Z,87.14
2023-03-29T20:55:45.131Z,87.14
2023-03-29T20:58:11.817Z,86.60
2023-03-29T21:00:38.371Z,86.67
2023-03-29T21:03:05.071Z,86.35
2023-03-29T21:05:32.931Z,86.24
2023-03-29T21:07:59.552Z,85.92
2023-03-29T21:10:27.400Z,86.17
2023-03-29T21:12:54.518Z,85.83
2023-03-29T21:15:21.078Z,85.65
2023-03-29T21:17:47.855Z,85.41
2023-03-29T21:20:15.434Z,85.53
2023-03-29T21:22:45.520Z,85.02
2023-03-29T21:25:15.518Z,85.01
2023-03-29T21:27:42.457Z,84.50
2023-03-29T21:30:09.420Z,84.32
2023-03-29T21:32:36.190Z,84.28
2023-03-29T21:35:02.812Z,84.03
2023-03-29T21:37:29.470Z,84.04
2023-03-29T21:39:56.036Z,83.65
2023-03-29T21:42:22.535Z,83.93
2023-03-29T21:44:49.079Z,83.69
2023-03-29T21:47:15.711Z,83.17
2023-03-29T21:49:42.193Z,83.11
2023-03-29T21:52:08.730Z,83.16
2023-03-29T21:54:35.384Z,82.77
2023-03-29T21:57:01.946Z,82.42
2023-03-29T21:59:28.584Z,82.23
2023-03-29T22:01:55.390Z,82.32
2023-03-29T22:04:35.288Z,81.69
2023-03-29T22:07:03.057Z,81.84
2023-03-29T22:09:29.736Z,81.81
2023-03-29T22:11:56.822Z,81.43
2023-03-29T22:14:23.457Z,81.49
2023-03-29T22:16:50.069Z,81.57
2023-03-29T22:19:16.674Z,81.31
2023-03-29T22:21:44.096Z,80.74
2023-03-29T22:24:10.662Z,80.92
2023-03-29T22:26:37.441Z,80.89
2023-03-29T22:29:03.974Z,80.66
2023-03-29T22:31:31.494Z,80.52
2023-03-29T22:33:58.475Z,80.04
2023-03-29T22:36:30.609Z,80.56
2023-03-29T22:38:57.646Z,80.06
2023-03-29T22:41:25.994Z,79.95
2023-03-29T22:43:53.721Z,80.13
2023-03-29T22:46:21.253Z,79.99
2023-03-29T22:48:48.289Z,79.93
2023-03-29T22:51:16.195Z,79.94
2023-03-29T22:53:42.914Z,80.06
2023-03-29T22:56:09.684Z,79.08
2023-03-29T22:58:37.198Z,79.54
2023-03-29T23:01:04.424Z,79.05
2023-03-29T23:03:31.457Z,79.00
2023-03-29T23:06:02.175Z,78.29
2023-03-29T23:08:30.854Z,78.27
2023-03-29T23:10:58.006Z,78.57
2023-03-29T23:13:26.383Z,78.13
2023-03-29T23:15:55.958Z,78.33
2023-03-29T23:18:23.664Z,78.16
2023-03-29T23:20:53.084Z,77.76
2023-03-29T23:23:20.301Z,77.65
2023-03-29T23:25:48.239Z,77.42
2023-03-29T23:28:21.199Z,77.29
2023-03-29T23:31:09.868Z,77.62
2023-03-29T23:33:40.994Z,77.20
2023-03-29T23:36:10.399Z,77.37
2023-03-29T23:38:38.730Z,77.03
2023-03-29T23:41:08.370Z,76.97
2023-03-29T23:43:37.555Z,77.47
2023-03-29T23:46:14.058Z,78.58
2023-03-29T23:48:44.833Z,78.84
2023-03-29T23:51:11.841Z,78.27
2023-03-29T23:53:38.469Z,78.22
2023-03-29T23:56:05.861Z,77.82
2023-03-29T23:58:34.878Z,77.47
